หน้าหลัก
METAR-TAF:

METAR-TAF

ท่าอากาศยาน :

Beauvais, ฝรั่งเศส

ละติจูด: 49-28N, ลองจิจูด: 002-07E, ความสูง: 109 ม.

การสังเกตสภาพอากาศปัจจุบัน

รายงานได้ทำขึ้นเมื่อ 16 นาทีที่แล้ว ณ เวลา 03:30 UTC
ลมสงบ
อุณหภูมิ 6°C
ความชื้น 100%
ความกดอากาศ 1019 hPa
ทัศนวิสัย: 3900 ม.

METAR: LFOB 130330Z AUTO 00000KT 9999 3900 NSC 06/06 Q1019 TEMPO 4000 BR

เวลา: 05:46 (03:46 UTC)

การพยากรณ์

รายงานได้ทำขึ้นเมื่อ 4 ชั่วโมงและ 46 นาทีที่แล้ว ณ เวลา 23:00 UTC
การพยากรณ์มีผลตั้งแต่วันที่ 13 ณ เวลา 00 UTC จนถึงวันที่ 13 ณ เวลา 24 UTC
ลม 3 นอตจากตะวันตก/ตะวันตกเฉียงเหนือ
ทัศนวิสัย 10 กม. หรือมากกว่า
ไม่มีเมฆต่ำกว่า 1,500 ม. และไม่มีเมฆคิวมูโลนิมบัส
ความน่าจะเป็น 40% :
ชั่วคราว
ตั้งแต่วันที่ 13 ณ เวลา 01 UTC จนถึงวันที่ 13 ณ เวลา 05 UTC
ทัศนวิสัย: 4000 ม.
หมอกน้ำค้าง
ชั่วคราว
ตั้งแต่วันที่ 13 ณ เวลา 22 UTC จนถึงวันที่ 13 ณ เวลา 24 UTC
ทัศนวิสัย: 4000 ม.
มีเมฆเป็นส่วนมากเว้นเป็นระยะที่ความสูง 2000 ฟุต
ฝนตกเล็กน้อย,

TAF: LFOB 122300Z 1300/1324 29003KT CAVOK PROB40 TEMPO 1301/1305 4000 BR TEMPO 1322/1324 4000 -RA BKN020

สังเกตการณ์สภาพอากาศและพยากรณ์อากาศของสนามบินมากกว่า 4000 แห่ง (รายงาน METAR และ TAF).

สถานีที่ดูได้จะแสดงไว้ด้วยจุดสีเหลืองและสีแดงบนแผนที่.

เลื่อนเมาส์ไปเหนือจุดเพื่อดูชื่อสถานี.

แล้วคลิกเพื่อดูสังเกตการณ์และการพยากรณ์สภาพอากาศ.

ในการเปลี่ยนแผนที่: คลิกที่ปุ่มสีเขียวที่มีกากบาทสีดำเพื่อซูมเข้า; ที่ปุ่มสีเขียวที่มีขีดเพื่อซูมออก; หรือที่ลูกศรสีเขียวเพื่อไปยังแผนที่ที่อยู่ติดกัน.


METAR-TAF: